Aeroporto :
LOGIN :

Iscrizione | Disclaimer

   EN    FR    IT 

 










Sommario :    VFR   VFR Marginale   IFR   IFR Intensivo   IFR Molto Intensivo
Visibilità : 
Base nubi : 
>= 8 km
>= 3000ft
5 / 8 km
1000 / 3000 ft
1500m / 5 km
500 / 1000 ft
800 / 1500m
200 / 500 ft
< 800m
< 200 ft
Simboli :   Temporali  Nebbia  Neve Forte  Precipitazioni Forti  Vento > 20 kt
SIGMETs :   Varie  Temporali  Ghiacco  Turbolenza  Onda orograficha  Ceneri Vulcaniche






- Altitudine del aeroporto : 352 ft
- Codice IATA : ARW


LRAR - Arad International

ULTIMO METAR :
  • 141230Z 31007KT 9999 BKN048 21/10 Q1015

METARs OBSOLETI :
  • 141200Z 32005KT 280V010 9999 BKN045 22/11 Q1015
  • 141130Z 31008KT 280V340 9999 BKN041 21/11 Q1015
  • 141100Z 33007KT 290V360 9999 BKN039 21/11 Q1015
  • 141030Z 32009KT 280V350 9999 BKN037 19/11 Q1015
  • 141000Z 31006KT 270V350 9999 BKN036 20/12 Q1015
  • 140930Z 32004KT 9999 BKN033 19/11 Q1015
  • 140900Z 30005KT 230V350 9999 BKN031 19/11 Q1015
  • 140830Z 32006KT 260V040 9999 BKN030 18/11 Q1016
  • 140800Z 34005KT 280V030 9999 FEW023 SCT035 18/11 Q1016

TAF TAF LRAR
Valido dal 14 a 12 ore il 14 a 21 ore UTC


141100Z 1412/1421 33009KT 9999 BKN035



MetMap, La meteo Aeronautica in un colpo d'occhio ! - Copyright ORBIFLY Dicembre 2007 - Disclaimer

ORBIFLY MET'MAP TEAM :

Programmazione e sviluppo : Alexandra Zaïnal
Concezione : Baudouin d'Aumeries
Supporto tecnico e logistico : Manuel Goepfert
Aiuto : Marc-Olivier Méhu
Aiuto per la traduzione : Arnaldo La Scala




FONTI E CREDITI :

   NOAA